createdAt,value
2019-02-27T00:02:13.873Z,83.19
2019-02-27T00:04:43.483Z,83.21
2019-02-27T00:07:13.094Z,82.59
2019-02-27T00:09:42.725Z,82.68
2019-02-27T00:12:12.345Z,83.00
2019-02-27T00:14:41.982Z,83.06
2019-02-27T00:17:11.633Z,82.92
2019-02-27T00:19:41.297Z,83.01
2019-02-27T00:22:10.925Z,83.17
2019-02-27T00:24:40.623Z,83.22
2019-02-27T00:27:14.574Z,83.41
2019-02-27T00:29:41.698Z,82.80
2019-02-27T00:32:11.406Z,82.68
2019-02-27T00:34:41.070Z,82.96
2019-02-27T00:37:10.693Z,83.18
2019-02-27T00:39:40.322Z,82.60
2019-02-27T00:42:10.294Z,82.88
2019-02-27T00:44:41.021Z,83.31
2019-02-27T00:47:10.620Z,83.56
2019-02-27T00:49:40.264Z,83.66
2019-02-27T00:52:09.859Z,83.91
2019-02-27T00:54:39.546Z,83.99
2019-02-27T00:57:09.270Z,84.05
2019-02-27T00:59:38.945Z,83.95
2019-02-27T01:02:08.702Z,83.72
2019-02-27T01:04:38.437Z,83.60
2019-02-27T01:07:08.095Z,83.44
2019-02-27T01:09:39.527Z,83.02
2019-02-27T01:12:09.173Z,82.98
2019-02-27T01:14:38.903Z,83.37
2019-02-27T01:17:08.644Z,83.54
2019-02-27T01:19:39.246Z,83.74
2019-02-27T01:22:09.033Z,83.75
2019-02-27T01:24:38.730Z,83.84
2019-02-27T01:27:08.451Z,83.73
2019-02-27T01:29:38.126Z,83.64
2019-02-27T01:32:07.820Z,83.74
2019-02-27T01:34:37.538Z,83.69
2019-02-27T01:37:07.287Z,83.93
2019-02-27T01:39:37.081Z,83.92
2019-02-27T01:42:06.766Z,83.85
2019-02-27T01:44:36.454Z,83.98
2019-02-27T01:47:06.169Z,84.01
2019-02-27T01:49:35.860Z,83.88
2019-02-27T01:52:05.576Z,84.02
2019-02-27T01:54:35.257Z,83.97
2019-02-27T01:57:04.964Z,83.87
2019-02-27T01:59:34.683Z,83.90
2019-02-27T02:02:04.476Z,83.62
2019-02-27T02:04:34.184Z,83.70
2019-02-27T02:07:06.242Z,83.86
2019-02-27T02:09:36.681Z,84.09
2019-02-27T02:12:09.433Z,84.19
2019-02-27T02:14:44.864Z,84.25
2019-02-27T02:17:34.067Z,84.21
2019-02-27T02:20:18.337Z,84.34
2019-02-27T02:22:54.048Z,84.39
2019-02-27T02:25:29.698Z,83.58
2019-02-27T02:28:23.623Z,83.55
2019-02-27T02:31:07.870Z,83.83
2019-02-27T02:33:52.791Z,83.75
2019-02-27T02:36:45.107Z,83.89
2019-02-27T02:39:36.403Z,83.85
2019-02-27T02:42:40.582Z,83.37
2019-02-27T02:45:18.650Z,83.67
2019-02-27T02:48:00.111Z,83.90
2019-02-27T02:50:41.033Z,83.64
2019-02-27T02:53:25.201Z,83.66
2019-02-27T02:56:24.973Z,83.71
2019-02-27T02:59:28.357Z,83.69
2019-02-27T03:02:13.324Z,83.44
2019-02-27T03:05:01.014Z,83.10
2019-02-27T03:07:51.659Z,83.34
2019-02-27T03:10:24.498Z,83.50
2019-02-27T03:13:30.609Z,83.64
2019-02-27T03:16:12.363Z,83.44
2019-02-27T03:18:48.035Z,83.25
2019-02-27T03:21:35.889Z,83.51
2019-02-27T03:24:28.972Z,83.70
2019-02-27T03:27:16.689Z,83.71
2019-02-27T03:29:53.413Z,83.76
2019-02-27T03:32:23.898Z,83.31
2019-02-27T03:35:08.445Z,82.46
2019-02-27T03:37:59.174Z,82.66
2019-02-27T03:40:51.285Z,82.70
2019-02-27T03:43:45.672Z,82.53
2019-02-27T03:46:18.448Z,82.07
2019-02-27T03:48:51.207Z,82.10
2019-02-27T03:51:35.879Z,82.29
2019-02-27T03:54:20.652Z,82.33
2019-02-27T03:56:54.034Z,82.57
2019-02-27T03:59:44.768Z,82.65
2019-02-27T04:02:26.424Z,82.46
2019-02-27T04:05:08.061Z,82.48
2019-02-27T04:08:07.035Z,82.53
2019-02-27T04:10:32.287Z,82.59
2019-02-27T04:13:02.102Z,82.46
2019-02-27T04:15:31.834Z,82.15
2019-02-27T04:18:00.378Z,82.11
2019-02-27T04:20:30.091Z,81.92
2019-02-27T04:22:59.770Z,81.80
2019-02-27T04:25:31.341Z,82.43
2019-02-27T04:28:00.919Z,82.32
2019-02-27T04:30:30.683Z,82.06
2019-02-27T04:33:00.377Z,82.70
2019-02-27T04:35:30.085Z,82.97
2019-02-27T04:37:59.803Z,82.99
2019-02-27T04:40:29.512Z,83.07
2019-02-27T04:42:59.885Z,83.14
2019-02-27T04:45:29.720Z,82.90
2019-02-27T04:47:59.445Z,82.88
2019-02-27T04:50:29.172Z,82.86
2019-02-27T04:52:58.834Z,82.95
2019-02-27T04:55:28.572Z,82.88
2019-02-27T04:57:58.289Z,82.70
2019-02-27T05:00:27.982Z,82.62
2019-02-27T05:02:57.693Z,82.59
2019-02-27T05:05:27.412Z,82.16
2019-02-27T05:07:57.134Z,82.00
2019-02-27T05:10:26.876Z,82.43
2019-02-27T05:12:56.561Z,82.67
2019-02-27T05:15:26.331Z,82.76
2019-02-27T05:17:56.307Z,82.88
2019-02-27T05:20:25.985Z,83.03
2019-02-27T05:23:00.116Z,83.06
2019-02-27T05:25:27.248Z,83.08
2019-02-27T05:28:01.014Z,83.23
2019-02-27T05:30:28.317Z,82.53
2019-02-27T05:33:01.800Z,82.51
2019-02-27T05:35:29.503Z,82.75
2019-02-27T05:37:59.161Z,83.14
2019-02-27T05:40:28.898Z,83.29
2019-02-27T05:42:58.584Z,82.91
2019-02-27T05:45:31.193Z,83.00
2019-02-27T05:47:59.710Z,83.08
2019-02-27T05:50:34.009Z,83.19
2019-02-27T05:53:00.866Z,83.00
2019-02-27T05:55:30.580Z,83.00
2019-02-27T05:58:00.261Z,82.90
2019-02-27T06:00:30.461Z,82.87
2019-02-27T06:03:00.141Z,82.56
2019-02-27T06:05:29.881Z,82.54
2019-02-27T06:08:02.074Z,82.33
2019-02-27T06:10:30.982Z,81.75
2019-02-27T06:13:00.678Z,81.99
2019-02-27T06:15:30.421Z,81.87
2019-02-27T06:18:00.109Z,81.73
2019-02-27T06:20:29.850Z,81.44
2019-02-27T06:23:04.225Z,81.46
2019-02-27T06:25:30.895Z,81.42
2019-02-27T06:28:00.590Z,81.34
2019-02-27T06:30:30.597Z,81.23
2019-02-27T06:33:01.091Z,81.27
2019-02-27T06:35:33.512Z,81.25
2019-02-27T06:38:02.218Z,81.13
2019-02-27T06:40:31.927Z,81.26
2019-02-27T06:43:01.625Z,81.29
2019-02-27T06:45:31.315Z,80.55
2019-02-27T06:48:01.059Z,78.91
2019-02-27T06:50:30.746Z,75.17
2019-02-27T06:53:00.445Z,72.90
2019-02-27T06:55:30.148Z,70.49
2019-02-27T06:57:59.884Z,68.68
2019-02-27T07:00:29.565Z,67.94
2019-02-27T07:02:59.265Z,68.11
2019-02-27T07:05:28.971Z,67.27
2019-02-27T07:07:58.669Z,65.92
2019-02-27T07:10:28.334Z,64.57
2019-02-27T07:12:58.023Z,63.04
2019-02-27T07:15:27.802Z,62.43
2019-02-27T07:17:57.585Z,62.76
2019-02-27T07:21:09.367Z,62.68
2019-02-27T07:23:38.966Z,61.17
2019-02-27T07:26:08.690Z,60.86
2019-02-27T07:28:38.370Z,60.74
2019-02-27T07:31:08.001Z,59.85
2019-02-27T07:33:40.167Z,60.64
2019-02-27T07:36:10.679Z,59.16
2019-02-27T07:38:40.307Z,60.54
2019-02-27T07:41:10.610Z,59.40
2019-02-27T07:43:40.257Z,59.36
2019-02-27T07:46:11.396Z,58.55
2019-02-27T07:48:41.030Z,57.98
2019-02-27T07:51:10.662Z,58.30
2019-02-27T07:53:40.758Z,56.62
2019-02-27T07:56:10.567Z,56.80
2019-02-27T07:58:44.915Z,55.84
2019-02-27T08:01:15.083Z,56.58
2019-02-27T08:03:45.736Z,56.01
2019-02-27T08:06:15.501Z,55.48
2019-02-27T08:08:45.292Z,55.35
2019-02-27T08:11:15.571Z,54.50
2019-02-27T08:13:45.268Z,54.04
2019-02-27T08:16:14.965Z,54.09
2019-02-27T08:18:53.092Z,53.05
2019-02-27T08:21:34.064Z,53.83
2019-02-27T08:24:07.415Z,53.82
2019-02-27T08:26:37.416Z,53.88
2019-02-27T08:29:07.078Z,53.45
2019-02-27T08:31:36.714Z,52.97
2019-02-27T08:34:06.373Z,51.71
2019-02-27T08:36:36.194Z,53.42
2019-02-27T08:39:06.655Z,52.23
2019-02-27T08:41:36.319Z,52.54
2019-02-27T08:44:06.024Z,50.33
2019-02-27T08:46:37.013Z,50.86
2019-02-27T08:49:07.176Z,49.95
2019-02-27T08:51:36.892Z,51.00
2019-02-27T08:54:06.567Z,50.23
2019-02-27T08:56:36.245Z,49.41
2019-02-27T08:59:06.137Z,49.54
2019-02-27T09:01:37.784Z,48.30
2019-02-27T09:04:11.377Z,48.30
2019-02-27T09:06:38.929Z,46.11
2019-02-27T09:09:08.597Z,47.29
2019-02-27T09:11:40.035Z,46.79
2019-02-27T09:14:11.899Z,47.06
2019-02-27T09:16:40.957Z,47.38
2019-02-27T09:21:40.311Z,45.24
2019-02-27T09:24:09.994Z,46.11
2019-02-27T09:26:39.702Z,44.48
2019-02-27T09:29:09.419Z,45.37
2019-02-27T09:31:39.114Z,46.38
2019-02-27T09:34:08.800Z,45.64
2019-02-27T09:36:43.031Z,45.88
2019-02-27T09:39:09.924Z,44.92
2019-02-27T09:41:39.612Z,45.99
2019-02-27T09:44:09.352Z,45.69
2019-02-27T09:46:39.850Z,44.93
2019-02-27T09:49:09.539Z,45.31
2019-02-27T09:51:39.203Z,44.59
2019-02-27T09:54:11.056Z,43.87
2019-02-27T09:56:40.208Z,45.42
2019-02-27T09:59:09.869Z,44.87
2019-02-27T10:01:39.543Z,46.28
2019-02-27T10:04:09.747Z,45.82
2019-02-27T10:06:40.474Z,46.72
2019-02-27T10:09:13.172Z,46.70
2019-02-27T10:11:42.834Z,46.53
2019-02-27T10:14:14.172Z,46.17
2019-02-27T10:16:43.895Z,45.83
2019-02-27T10:19:13.633Z,44.99
2019-02-27T10:21:44.601Z,44.56
2019-02-27T10:24:14.879Z,44.68
2019-02-27T10:26:44.553Z,44.43
2019-02-27T10:29:14.276Z,44.16
2019-02-27T10:31:43.991Z,43.62
2019-02-27T10:34:14.594Z,44.79
2019-02-27T10:36:45.023Z,44.61
2019-02-27T10:39:14.678Z,44.82
2019-02-27T10:41:44.950Z,44.62
2019-02-27T10:44:14.661Z,43.70
2019-02-27T10:46:44.321Z,43.90
2019-02-27T10:49:13.989Z,44.41
2019-02-27T10:51:44.383Z,43.86
2019-02-27T10:54:14.115Z,43.09
2019-02-27T10:56:43.776Z,43.11
2019-02-27T10:59:13.436Z,44.34
2019-02-27T11:01:43.200Z,43.42
2019-02-27T11:04:12.838Z,42.82
2019-02-27T11:06:42.777Z,43.29
2019-02-27T11:09:15.416Z,43.79
2019-02-27T11:11:45.088Z,43.28
2019-02-27T11:14:14.738Z,43.46
2019-02-27T11:16:44.425Z,43.76
2019-02-27T11:19:16.567Z,43.52
2019-02-27T11:21:45.455Z,43.78
2019-02-27T11:24:17.331Z,43.61
2019-02-27T11:26:46.499Z,43.15
2019-02-27T11:29:16.173Z,43.15
2019-02-27T11:31:46.158Z,43.66
2019-02-27T11:34:16.223Z,43.21
2019-02-27T11:36:46.031Z,44.10
2019-02-27T11:39:15.912Z,42.93
2019-02-27T11:41:46.119Z,43.35
2019-02-27T11:44:16.957Z,43.98
2019-02-27T11:46:46.661Z,44.66
2019-02-27T11:49:16.334Z,44.05
2019-02-27T11:51:46.008Z,45.03
2019-02-27T11:54:15.681Z,43.97
2019-02-27T11:56:45.339Z,45.26
2019-02-27T11:59:14.995Z,44.49
2019-02-27T12:01:44.678Z,44.83
2019-02-27T12:04:14.351Z,44.83
2019-02-27T12:06:44.045Z,43.93
2019-02-27T12:09:13.764Z,42.48
2019-02-27T12:11:48.305Z,43.18
2019-02-27T12:14:14.896Z,41.86
2019-02-27T12:16:44.540Z,42.83
2019-02-27T12:19:14.407Z,42.98
2019-02-27T12:21:44.062Z,42.58
2019-02-27T12:24:16.327Z,41.61
2019-02-27T12:26:46.119Z,41.06
2019-02-27T12:29:15.790Z,40.33
2019-02-27T12:31:48.222Z,39.32
2019-02-27T12:34:16.846Z,40.30
2019-02-27T12:36:46.492Z,38.98
2019-02-27T12:39:16.158Z,38.90
2019-02-27T12:41:45.800Z,37.48
2019-02-27T12:44:15.559Z,38.07
2019-02-27T12:46:45.208Z,37.56
2019-02-27T12:49:16.925Z,38.23
2019-02-27T12:52:22.692Z,38.13
2019-02-27T12:54:52.129Z,38.38
2019-02-27T12:57:34.020Z,39.91
2019-02-27T13:00:05.809Z,39.17
2019-02-27T13:02:36.899Z,37.48
2019-02-27T13:05:09.811Z,40.73
2019-02-27T13:07:39.476Z,39.22
2019-02-27T13:10:13.340Z,40.20
2019-02-27T13:12:43.077Z,40.78
2019-02-27T13:15:18.282Z,40.92
2019-02-27T13:17:48.085Z,39.58
2019-02-27T13:20:19.984Z,39.05
2019-02-27T13:22:49.675Z,38.57
2019-02-27T13:25:21.380Z,37.59
2019-02-27T13:27:50.818Z,37.60
2019-02-27T13:30:23.538Z,38.74
2019-02-27T13:32:53.224Z,38.46
2019-02-27T13:35:23.976Z,39.70
2019-02-27T13:37:53.878Z,38.60
2019-02-27T13:40:25.821Z,38.52
2019-02-27T13:42:55.481Z,39.08
2019-02-27T13:45:29.274Z,39.42
2019-02-27T13:47:59.173Z,38.45
2019-02-27T13:50:28.963Z,39.88
2019-02-27T13:52:59.003Z,39.78
2019-02-27T13:55:28.719Z,38.96
2019-02-27T13:57:59.183Z,39.41
2019-02-27T14:00:31.385Z,40.05
2019-02-27T14:03:01.073Z,39.04
2019-02-27T14:05:35.075Z,38.26
2019-02-27T14:08:02.087Z,39.34
2019-02-27T14:10:33.753Z,38.68
2019-02-27T14:13:08.775Z,38.81
2019-02-27T14:15:35.018Z,38.34
2019-02-27T14:18:04.670Z,38.24
2019-02-27T14:20:34.340Z,39.64
2019-02-27T14:23:04.067Z,39.71
2019-02-27T14:25:34.203Z,38.82
2019-02-27T14:28:03.922Z,38.60
2019-02-27T14:30:39.366Z,39.36
2019-02-27T14:33:10.944Z,39.12
2019-02-27T14:35:40.391Z,38.49
2019-02-27T14:38:10.035Z,38.90
2019-02-27T14:40:41.216Z,40.44
2019-02-27T14:43:11.036Z,39.63
2019-02-27T14:45:41.078Z,39.62
2019-02-27T14:48:11.029Z,39.75
2019-02-27T14:50:40.663Z,40.53
2019-02-27T14:53:10.845Z,40.44
2019-02-27T14:55:40.549Z,40.55
2019-02-27T14:58:12.216Z,40.88
2019-02-27T15:00:41.958Z,40.12
2019-02-27T15:03:11.633Z,41.85
2019-02-27T15:05:44.740Z,41.29
2019-02-27T15:08:14.873Z,42.26
2019-02-27T15:10:44.671Z,41.48
2019-02-27T15:13:14.457Z,42.97
2019-02-27T15:15:44.491Z,43.97
2019-02-27T15:18:15.117Z,43.82
2019-02-27T15:20:45.825Z,44.59
2019-02-27T15:23:16.591Z,44.41
2019-02-27T15:25:46.223Z,45.41
2019-02-27T15:28:16.104Z,44.24
2019-02-27T15:30:46.625Z,45.70
2019-02-27T15:33:16.991Z,44.88
2019-02-27T15:35:46.665Z,45.47
2019-02-27T15:38:16.310Z,45.50
2019-02-27T15:40:45.996Z,46.41
2019-02-27T15:43:17.287Z,46.22
2019-02-27T15:45:48.838Z,47.15
2019-02-27T15:48:19.053Z,47.02
2019-02-27T15:50:48.743Z,47.49
2019-02-27T15:53:18.606Z,47.67
2019-02-27T15:55:48.975Z,48.52
2019-02-27T15:58:18.683Z,49.08
2019-02-27T16:00:52.183Z,48.56
2019-02-27T16:03:19.936Z,48.55
2019-02-27T16:05:49.655Z,49.06
2019-02-27T16:08:20.182Z,48.73
2019-02-27T16:10:54.745Z,48.64
2019-02-27T16:13:22.261Z,48.82
2019-02-27T16:15:51.966Z,48.57
2019-02-27T16:18:21.675Z,49.66
2019-02-27T16:20:51.358Z,49.70
2019-02-27T16:23:21.018Z,50.35
2019-02-27T16:25:53.757Z,50.62
2019-02-27T16:28:22.111Z,51.14
2019-02-27T16:30:51.785Z,52.09
2019-02-27T16:33:23.883Z,52.59
2019-02-27T16:35:52.831Z,53.34
2019-02-27T16:38:22.540Z,54.74
2019-02-27T16:40:53.462Z,55.64
2019-02-27T16:43:26.843Z,56.41
2019-02-27T16:45:56.496Z,56.86
2019-02-27T16:48:26.162Z,57.73
2019-02-27T16:50:57.467Z,58.21
2019-02-27T16:53:27.181Z,58.92
2019-02-27T16:55:56.883Z,60.23
2019-02-27T16:58:32.785Z,60.67
2019-02-27T17:00:58.602Z,60.81
2019-02-27T17:03:28.387Z,61.17
2019-02-27T17:05:58.084Z,61.47
2019-02-27T17:08:28.388Z,61.97
2019-02-27T17:10:59.696Z,62.38
2019-02-27T17:13:29.430Z,62.13
2019-02-27T17:15:59.085Z,61.26
2019-02-27T17:18:29.314Z,61.44
2019-02-27T17:20:58.939Z,60.20
2019-02-27T17:23:28.629Z,58.77
2019-02-27T17:26:03.449Z,58.98
2019-02-27T17:28:29.750Z,58.86
2019-02-27T17:31:01.677Z,59.97
2019-02-27T17:33:31.589Z,60.28
2019-02-27T17:36:01.416Z,60.65
2019-02-27T17:38:31.095Z,60.96
2019-02-27T17:41:00.852Z,60.97
2019-02-27T17:43:30.553Z,61.15
2019-02-27T17:46:00.433Z,61.26
2019-02-27T17:48:30.316Z,60.58
2019-02-27T17:51:00.002Z,60.68
2019-02-27T17:53:29.674Z,58.78
2019-02-27T17:55:59.338Z,57.72
2019-02-27T17:58:31.879Z,57.86
2019-02-27T18:01:04.803Z,57.23
2019-02-27T18:03:36.663Z,56.64
2019-02-27T18:06:05.984Z,56.14
2019-02-27T18:08:35.681Z,55.71
2019-02-27T18:11:05.449Z,54.87
2019-02-27T18:13:36.212Z,55.14
2019-02-27T18:16:05.998Z,54.99
2019-02-27T18:18:35.813Z,54.25
2019-02-27T18:21:05.555Z,53.92
2019-02-27T18:23:35.228Z,53.69
2019-02-27T18:26:05.002Z,54.41
2019-02-27T18:28:34.748Z,54.31
2019-02-27T18:31:04.698Z,54.80
2019-02-27T18:33:34.373Z,55.09
2019-02-27T18:36:04.888Z,55.18
2019-02-27T18:38:35.411Z,56.02
2019-02-27T18:41:05.080Z,56.92
2019-02-27T18:43:34.877Z,57.77
2019-02-27T18:46:04.714Z,56.11
2019-02-27T18:48:34.457Z,56.85
2019-02-27T18:51:04.192Z,56.38
2019-02-27T18:53:33.963Z,56.58
2019-02-27T18:56:03.651Z,57.37
2019-02-27T18:58:33.347Z,57.21
2019-02-27T19:01:03.448Z,57.69
2019-02-27T19:03:33.241Z,58.69
2019-02-27T19:06:02.982Z,59.15
2019-02-27T19:08:32.648Z,58.67
2019-02-27T19:11:02.424Z,59.28
2019-02-27T19:13:32.427Z,59.60
2019-02-27T19:16:09.132Z,59.98
2019-02-27T19:18:41.163Z,60.34
2019-02-27T19:21:10.904Z,60.85
2019-02-27T19:23:40.878Z,61.11
2019-02-27T19:26:10.830Z,61.50
2019-02-27T19:28:40.735Z,61.68
2019-02-27T19:31:10.591Z,61.55
2019-02-27T19:33:40.865Z,61.80
2019-02-27T19:36:18.864Z,60.21
2019-02-27T19:38:44.247Z,59.53
2019-02-27T19:41:15.049Z,58.37
2019-02-27T19:43:44.772Z,57.93
2019-02-27T19:46:14.448Z,57.45
2019-02-27T19:48:44.167Z,57.15
2019-02-27T19:51:14.171Z,55.98
2019-02-27T19:53:43.873Z,56.63
2019-02-27T19:56:13.713Z,56.04
2019-02-27T19:58:43.358Z,56.49
2019-02-27T20:01:13.174Z,55.86
2019-02-27T20:03:42.903Z,56.36
2019-02-27T20:06:12.670Z,56.87
2019-02-27T20:08:45.337Z,57.38
2019-02-27T20:11:13.956Z,56.77
2019-02-27T20:13:43.820Z,56.76
2019-02-27T20:16:13.478Z,56.93
2019-02-27T20:18:43.627Z,56.75
2019-02-27T20:21:14.083Z,56.28
2019-02-27T20:23:43.737Z,56.28
2019-02-27T20:26:14.303Z,56.81
2019-02-27T20:28:44.129Z,56.53
2019-02-27T20:31:17.949Z,56.08
2019-02-27T20:33:45.249Z,55.68
2019-02-27T20:36:14.922Z,56.71
2019-02-27T20:38:47.470Z,56.28
2019-02-27T20:41:16.362Z,57.05
2019-02-27T20:43:46.079Z,57.39
2019-02-27T20:46:16.975Z,57.30
2019-02-27T20:48:46.660Z,57.20
2019-02-27T20:51:16.491Z,57.88
2019-02-27T20:53:46.238Z,58.30
2019-02-27T20:56:16.161Z,58.47
2019-02-27T20:58:51.076Z,58.55
2019-02-27T21:01:17.502Z,59.29
2019-02-27T21:03:47.250Z,59.65
2019-02-27T21:06:16.964Z,59.98
2019-02-27T21:08:46.713Z,60.62
2019-02-27T21:11:16.600Z,60.77
2019-02-27T21:13:49.343Z,61.41
2019-02-27T21:16:18.295Z,61.22
2019-02-27T21:18:48.045Z,61.33
2019-02-27T21:21:19.809Z,61.39
2019-02-27T21:23:49.237Z,61.61
2019-02-27T21:26:19.962Z,62.19
2019-02-27T21:28:58.179Z,62.47
2019-02-27T21:31:26.499Z,63.02
2019-02-27T21:33:53.297Z,63.33
2019-02-27T21:36:23.185Z,63.20
2019-02-27T21:38:52.889Z,63.17
2019-02-27T21:41:22.523Z,63.20
2019-02-27T21:43:52.179Z,63.65
2019-02-27T21:46:21.918Z,64.06
2019-02-27T21:48:51.597Z,64.36
2019-02-27T21:51:21.309Z,65.16
2019-02-27T21:53:51.032Z,65.55
2019-02-27T21:56:20.671Z,65.81
2019-02-27T21:58:50.431Z,66.49
2019-02-27T22:01:21.994Z,67.08
2019-02-27T22:03:51.579Z,67.53
2019-02-27T22:06:24.683Z,67.87
2019-02-27T22:08:53.719Z,68.07
2019-02-27T22:11:24.201Z,68.53
2019-02-27T22:13:54.729Z,69.07
2019-02-27T22:16:29.489Z,69.30
2019-02-27T22:18:55.743Z,69.64
2019-02-27T22:21:25.403Z,70.05
2019-02-27T22:23:57.823Z,70.46
2019-02-27T22:26:27.597Z,70.54
2019-02-27T22:28:57.319Z,70.95
2019-02-27T22:31:26.974Z,71.02
2019-02-27T22:33:57.749Z,71.24
2019-02-27T22:36:27.400Z,71.32
2019-02-27T22:39:00.164Z,71.34
2019-02-27T22:41:28.456Z,71.66
2019-02-27T22:43:58.260Z,71.83
2019-02-27T22:46:27.907Z,71.81
2019-02-27T22:49:00.013Z,72.04
2019-02-27T22:51:29.020Z,72.45
2019-02-27T22:53:59.429Z,72.51
2019-02-27T22:56:30.067Z,72.90
2019-02-27T22:59:03.162Z,72.77
2019-02-27T23:01:36.985Z,73.24
2019-02-27T23:04:06.911Z,73.39
2019-02-27T23:06:36.573Z,73.28
2019-02-27T23:09:08.978Z,73.62
2019-02-27T23:11:39.717Z,73.70
2019-02-27T23:14:09.593Z,73.83
2019-02-27T23:16:39.618Z,74.03
2019-02-27T23:19:11.999Z,74.48
2019-02-27T23:21:40.687Z,74.61
2019-02-27T23:24:10.974Z,74.75
2019-02-27T23:26:40.656Z,74.84
2019-02-27T23:29:10.306Z,75.03
2019-02-27T23:31:39.961Z,75.40
2019-02-27T23:34:09.679Z,75.43
2019-02-27T23:36:39.340Z,75.30
2019-02-27T23:39:09.706Z,75.63
2019-02-27T23:41:39.408Z,76.11
2019-02-27T23:44:09.101Z,76.29
2019-02-27T23:46:38.805Z,76.80
2019-02-27T23:49:08.453Z,77.15
2019-02-27T23:51:38.280Z,77.07
2019-02-27T23:54:07.972Z,77.21
2019-02-27T23:56:37.726Z,77.26
2019-02-27T23:59:07.408Z,77.28
